Cold Bay, AK

3:39 AM AKDT on September 30, 2014 (GMT -0800)
Cold Bay | Change Station
CLOSE
Current Station
Airport
Location: Cold Bay,
Elevation: 102 ft
Nearby Weather Stations

Elev 102 ft 55.22 °N, 162.73 °W | Updated 46 minutes ago

Overcast
Overcast
46 °F
Feels Like 43 °F
N
6
Wind Variable Wind from East

Today
High -- | Low -- °F
--% Chance of Precip.
Yesterday
High -- | Low -- °F
Precip. -- in
8:51 AM 8:28 PM
Waxing Crescent, 36% visible
Pressure 30.18 in
Visibility 10.0 miles
Clouds Mostly Cloudy 2500 ft
Overcast 3000 ft
Windchill 43 °F
Dew Point 38 °F
Humidity 73%
Rainfall 0.00 in
Snow Depth 9 in , 0 in , 23 in
UV 0 out of 12
Pollen Not available.
Air Quality Not available.
Flu Activity Not available.
METAR PACD 301053Z 08005KT 10SM BKN025 OVC030 08/03 A3018 RMK AO2 SLP219 T00780033

More Conditions Fewer Conditions

Pressure 30.18 in
Visibility 10.0 miles
Clouds Mostly Cloudy 2500 ft
Overcast 3000 ft
Windchill 43 °F
Dew Point 38 °F
Humidity 73%
Rainfall 0.00 in
Snow Depth 9 in , 0 in , 23 in
UV 0 out of 12
Pollen Not available.
Air Quality Not available.
Flu Activity Not available.
METAR PACD 301053Z 08005KT 10SM BKN025 OVC030 08/03 A3018 RMK AO2 SLP219 T00780033

More Conditions Fewer Conditions

10-Day Weather Forecast

Almanac

Astronomy

Sep. 30, 2014 Rise Set
Actual Time 8:51 AM AKDT 8:28 PM AKDT
Civil Twilight 8:15 AM AKDT 9:04 PM AKDT
Nautical Twilight 7:33 AM AKDT 9:46 PM AKDT
Astronomical Twilight 6:49 AM AKDT 10:30 PM AKDT
Moon 3:57 PM AKDT No Moon Set
Length of Visible Light 12h 48m
Length of Day
11h 36m
Tomorrow will be 4m 29s shorter.
Waxing Crescent, 36% of the Moon is Illuminated
Today
Waxing Crescent
Oct 1
First Quarter
Oct 8
Full
Oct 15
Last Quarter
Oct 23
New

Today's Extremes

State Highs State Lows

Community

WunderPhotos

Upload Photos

1,757,618 photos uploaded!

Nearby

Snow Depth

Station Depth Elevation
Atigun Pass 9 in 4800 ft
Little Chena Ridge 0 in 2000 ft
Grandview 23 in 1100 ft
Upper Tsaina River 0 in 1750 ft
Susitna Valley High 2 in 375 ft

Earthquake Activity

City Distance Mag. Time & Date
No recent earthquake activity has been reported nearby.
Minimum magnitude displayed is 2.5.

Coastal Water Temperatures

Place Temperature
No Stations Reporting

Nearby Weather Stations